sensor_id;sensor_type;location;lat;lon;timestamp;P1;durP1;ratioP1;P2;durP2;ratioP2
21741;SDS011;11033;47.490;11.116;2023-04-03T00:01:04;10.20;;;7.40;;
21741;SDS011;11033;47.490;11.116;2023-04-03T00:03:30;9.52;;;7.50;;
21741;SDS011;11033;47.490;11.116;2023-04-03T00:05:56;10.02;;;8.95;;
21741;SDS011;11033;47.490;11.116;2023-04-03T00:08:21;10.02;;;7.78;;
21741;SDS011;11033;47.490;11.116;2023-04-03T00:10:46;11.20;;;8.90;;
21741;SDS011;11033;47.490;11.116;2023-04-03T00:13:13;9.60;;;8.00;;
21741;SDS011;11033;47.490;11.116;2023-04-03T00:15:39;9.25;;;7.05;;
21741;SDS011;11033;47.490;11.116;2023-04-03T00:18:05;10.77;;;8.65;;
21741;SDS011;11033;47.490;11.116;2023-04-03T00:20:31;8.73;;;7.25;;
21741;SDS011;11033;47.490;11.116;2023-04-03T00:22:57;11.15;;;8.65;;
21741;SDS011;11033;47.490;11.116;2023-04-03T00:25:22;9.98;;;8.20;;
21741;SDS011;11033;47.490;11.116;2023-04-03T00:27:48;11.68;;;9.65;;
21741;SDS011;11033;47.490;11.116;2023-04-03T00:30:14;9.57;;;8.25;;
21741;SDS011;11033;47.490;11.116;2023-04-03T00:32:41;12.25;;;10.32;;
21741;SDS011;11033;47.490;11.116;2023-04-03T00:35:07;14.05;;;10.63;;
21741;SDS011;11033;47.490;11.116;2023-04-03T00:37:33;13.25;;;10.60;;
21741;SDS011;11033;47.490;11.116;2023-04-03T00:39:58;11.23;;;9.80;;
21741;SDS011;11033;47.490;11.116;2023-04-03T00:42:24;14.00;;;10.23;;
21741;SDS011;11033;47.490;11.116;2023-04-03T00:47:17;10.55;;;9.27;;
21741;SDS011;11033;47.490;11.116;2023-04-03T00:49:43;12.43;;;10.23;;
21741;SDS011;11033;47.490;11.116;2023-04-03T00:52:11;13.07;;;10.55;;
21741;SDS011;11033;47.490;11.116;2023-04-03T00:57:07;14.38;;;11.23;;
21741;SDS011;11033;47.490;11.116;2023-04-03T00:59:35;12.45;;;10.75;;
21741;SDS011;11033;47.490;11.116;2023-04-03T01:02:06;16.48;;;11.98;;
21741;SDS011;11033;47.490;11.116;2023-04-03T01:07:00;15.60;;;12.10;;
21741;SDS011;11033;47.490;11.116;2023-04-03T01:09:29;13.57;;;9.88;;
21741;SDS011;11033;47.490;11.116;2023-04-03T01:12:12;13.80;;;10.95;;
21741;SDS011;11033;47.490;11.116;2023-04-03T01:14:41;15.70;;;12.18;;
21741;SDS011;11033;47.490;11.116;2023-04-03T01:22:59;14.77;;;10.55;;
21741;SDS011;11033;47.490;11.116;2023-04-03T01:25:27;10.70;;;8.35;;
21741;SDS011;11033;47.490;11.116;2023-04-03T01:27:53;14.98;;;10.95;;
21741;SDS011;11033;47.490;11.116;2023-04-03T01:30:20;13.90;;;9.77;;
21741;SDS011;11033;47.490;11.116;2023-04-03T01:32:50;12.20;;;9.18;;
21741;SDS011;11033;47.490;11.116;2023-04-03T01:35:15;13.10;;;10.00;;
21741;SDS011;11033;47.490;11.116;2023-04-03T01:37:40;15.10;;;11.32;;
21741;SDS011;11033;47.490;11.116;2023-04-03T01:40:06;13.97;;;11.40;;
21741;SDS011;11033;47.490;11.116;2023-04-03T01:42:31;16.55;;;11.52;;
21741;SDS011;11033;47.490;11.116;2023-04-03T01:44:57;15.60;;;12.43;;
21741;SDS011;11033;47.490;11.116;2023-04-03T01:47:22;16.67;;;12.93;;
21741;SDS011;11033;47.490;11.116;2023-04-03T01:49:48;16.95;;;13.70;;
21741;SDS011;11033;47.490;11.116;2023-04-03T01:52:13;16.30;;;12.13;;
21741;SDS011;11033;47.490;11.116;2023-04-03T01:54:38;17.30;;;13.32;;
21741;SDS011;11033;47.490;11.116;2023-04-03T01:57:04;17.67;;;13.02;;
21741;SDS011;11033;47.490;11.116;2023-04-03T01:59:29;15.20;;;11.85;;
21741;SDS011;11033;47.490;11.116;2023-04-03T02:01:55;15.50;;;12.32;;
21741;SDS011;11033;47.490;11.116;2023-04-03T02:04:20;15.65;;;12.73;;
21741;SDS011;11033;47.490;11.116;2023-04-03T02:06:45;15.48;;;11.13;;
21741;SDS011;11033;47.490;11.116;2023-04-03T02:09:11;15.98;;;12.57;;
21741;SDS011;11033;47.490;11.116;2023-04-03T02:11:36;14.07;;;11.50;;
21741;SDS011;11033;47.490;11.116;2023-04-03T02:14:02;16.10;;;12.90;;
21741;SDS011;11033;47.490;11.116;2023-04-03T02:16:27;16.08;;;11.43;;
21741;SDS011;11033;47.490;11.116;2023-04-03T02:18:53;16.33;;;12.27;;
21741;SDS011;11033;47.490;11.116;2023-04-03T02:21:18;16.33;;;12.48;;
21741;SDS011;11033;47.490;11.116;2023-04-03T02:23:44;18.30;;;13.47;;
21741;SDS011;11033;47.490;11.116;2023-04-03T02:26:11;16.73;;;12.40;;
21741;SDS011;11033;47.490;11.116;2023-04-03T02:28:38;16.30;;;13.02;;
21741;SDS011;11033;47.490;11.116;2023-04-03T02:31:04;16.05;;;12.65;;
21741;SDS011;11033;47.490;11.116;2023-04-03T02:33:31;19.88;;;15.02;;
21741;SDS011;11033;47.490;11.116;2023-04-03T02:35:56;14.85;;;11.50;;
21741;SDS011;11033;47.490;11.116;2023-04-03T02:38:22;22.58;;;12.82;;
21741;SDS011;11033;47.490;11.116;2023-04-03T02:40:48;19.85;;;12.90;;
21741;SDS011;11033;47.490;11.116;2023-04-03T02:43:13;16.58;;;12.60;;
21741;SDS011;11033;47.490;11.116;2023-04-03T02:45:39;17.05;;;12.70;;
21741;SDS011;11033;47.490;11.116;2023-04-03T02:48:04;17.52;;;12.18;;
21741;SDS011;11033;47.490;11.116;2023-04-03T02:50:30;16.20;;;12.68;;
21741;SDS011;11033;47.490;11.116;2023-04-03T02:52:55;18.90;;;13.77;;
21741;SDS011;11033;47.490;11.116;2023-04-03T02:55:20;19.13;;;14.18;;
21741;SDS011;11033;47.490;11.116;2023-04-03T02:57:46;18.77;;;13.38;;
21741;SDS011;11033;47.490;11.116;2023-04-03T03:00:11;17.13;;;12.95;;
21741;SDS011;11033;47.490;11.116;2023-04-03T03:02:37;19.65;;;13.82;;
21741;SDS011;11033;47.490;11.116;2023-04-03T03:05:03;16.73;;;13.13;;
21741;SDS011;11033;47.490;11.116;2023-04-03T03:07:28;17.40;;;13.18;;
21741;SDS011;11033;47.490;11.116;2023-04-03T03:09:53;19.17;;;13.47;;
21741;SDS011;11033;47.490;11.116;2023-04-03T03:12:19;17.73;;;13.70;;
21741;SDS011;11033;47.490;11.116;2023-04-03T03:14:46;19.15;;;14.05;;
21741;SDS011;11033;47.490;11.116;2023-04-03T03:17:13;19.83;;;14.27;;
21741;SDS011;11033;47.490;11.116;2023-04-03T03:19:38;20.35;;;13.70;;
21741;SDS011;11033;47.490;11.116;2023-04-03T03:22:03;21.50;;;14.82;;
21741;SDS011;11033;47.490;11.116;2023-04-03T03:24:28;23.03;;;15.90;;
21741;SDS011;11033;47.490;11.116;2023-04-03T03:26:54;16.75;;;12.82;;
21741;SDS011;11033;47.490;11.116;2023-04-03T03:29:19;19.67;;;13.77;;
21741;SDS011;11033;47.490;11.116;2023-04-03T03:31:45;18.42;;;13.80;;
21741;SDS011;11033;47.490;11.116;2023-04-03T03:34:10;18.83;;;13.37;;
21741;SDS011;11033;47.490;11.116;2023-04-03T03:36:35;18.73;;;13.43;;
21741;SDS011;11033;47.490;11.116;2023-04-03T03:39:01;17.38;;;11.80;;
21741;SDS011;11033;47.490;11.116;2023-04-03T03:41:26;17.65;;;12.52;;
21741;SDS011;11033;47.490;11.116;2023-04-03T03:43:51;16.98;;;12.70;;
21741;SDS011;11033;47.490;11.116;2023-04-03T03:46:17;18.83;;;13.63;;
21741;SDS011;11033;47.490;11.116;2023-04-03T03:48:42;21.08;;;15.02;;
21741;SDS011;11033;47.490;11.116;2023-04-03T03:51:08;20.10;;;14.40;;
21741;SDS011;11033;47.490;11.116;2023-04-03T03:53:33;19.95;;;14.35;;
21741;SDS011;11033;47.490;11.116;2023-04-03T03:55:58;15.95;;;11.80;;
21741;SDS011;11033;47.490;11.116;2023-04-03T03:58:24;19.45;;;14.23;;
21741;SDS011;11033;47.490;11.116;2023-04-03T04:00:49;23.05;;;16.60;;
21741;SDS011;11033;47.490;11.116;2023-04-03T04:03:15;20.45;;;14.15;;
21741;SDS011;11033;47.490;11.116;2023-04-03T04:05:40;17.40;;;12.75;;
21741;SDS011;11033;47.490;11.116;2023-04-03T04:08:06;20.13;;;12.50;;
21741;SDS011;11033;47.490;11.116;2023-04-03T04:10:31;19.75;;;13.20;;
21741;SDS011;11033;47.490;11.116;2023-04-03T04:12:57;20.40;;;13.32;;
21741;SDS011;11033;47.490;11.116;2023-04-03T04:15:22;25.42;;;15.60;;
21741;SDS011;11033;47.490;11.116;2023-04-03T04:17:47;20.55;;;13.82;;
21741;SDS011;11033;47.490;11.116;2023-04-03T04:20:13;21.02;;;14.88;;
21741;SDS011;11033;47.490;11.116;2023-04-03T04:22:38;24.20;;;17.05;;
21741;SDS011;11033;47.490;11.116;2023-04-03T04:25:04;19.08;;;12.93;;
21741;SDS011;11033;47.490;11.116;2023-04-03T04:27:30;22.17;;;14.10;;
21741;SDS011;11033;47.490;11.116;2023-04-03T04:29:55;20.63;;;13.70;;
21741;SDS011;11033;47.490;11.116;2023-04-03T04:32:20;21.67;;;14.80;;
21741;SDS011;11033;47.490;11.116;2023-04-03T04:34:46;20.30;;;13.90;;
21741;SDS011;11033;47.490;11.116;2023-04-03T04:37:11;18.10;;;12.63;;
21741;SDS011;11033;47.490;11.116;2023-04-03T04:39:36;18.83;;;12.47;;
21741;SDS011;11033;47.490;11.116;2023-04-03T04:42:02;18.30;;;13.03;;
21741;SDS011;11033;47.490;11.116;2023-04-03T04:44:27;20.13;;;13.88;;
21741;SDS011;11033;47.490;11.116;2023-04-03T04:46:52;20.67;;;13.93;;
21741;SDS011;11033;47.490;11.116;2023-04-03T04:49:18;19.33;;;12.45;;
21741;SDS011;11033;47.490;11.116;2023-04-03T04:51:43;20.73;;;13.43;;
21741;SDS011;11033;47.490;11.116;2023-04-03T04:54:09;18.67;;;13.45;;
21741;SDS011;11033;47.490;11.116;2023-04-03T04:56:34;16.40;;;11.17;;
21741;SDS011;11033;47.490;11.116;2023-04-03T04:59:00;19.77;;;13.63;;
21741;SDS011;11033;47.490;11.116;2023-04-03T05:01:25;17.05;;;11.57;;
21741;SDS011;11033;47.490;11.116;2023-04-03T05:03:51;18.67;;;12.45;;
21741;SDS011;11033;47.490;11.116;2023-04-03T05:06:16;17.08;;;12.43;;
21741;SDS011;11033;47.490;11.116;2023-04-03T05:08:41;16.77;;;11.35;;
21741;SDS011;11033;47.490;11.116;2023-04-03T05:11:07;14.63;;;10.35;;
21741;SDS011;11033;47.490;11.116;2023-04-03T05:13:32;16.38;;;11.18;;
21741;SDS011;11033;47.490;11.116;2023-04-03T05:15:57;12.17;;;9.13;;
21741;SDS011;11033;47.490;11.116;2023-04-03T05:18:23;15.93;;;10.93;;
21741;SDS011;11033;47.490;11.116;2023-04-03T05:20:48;14.65;;;10.65;;
21741;SDS011;11033;47.490;11.116;2023-04-03T05:23:15;14.98;;;10.65;;
21741;SDS011;11033;47.490;11.116;2023-04-03T05:25:40;16.20;;;11.45;;
21741;SDS011;11033;47.490;11.116;2023-04-03T05:28:06;16.50;;;11.07;;
21741;SDS011;11033;47.490;11.116;2023-04-03T05:30:31;21.38;;;13.68;;
21741;SDS011;11033;47.490;11.116;2023-04-03T05:32:58;20.40;;;13.52;;
21741;SDS011;11033;47.490;11.116;2023-04-03T05:35:23;19.05;;;12.77;;
21741;SDS011;11033;47.490;11.116;2023-04-03T05:37:49;22.55;;;15.50;;
21741;SDS011;11033;47.490;11.116;2023-04-03T05:40:14;20.17;;;13.02;;
21741;SDS011;11033;47.490;11.116;2023-04-03T05:42:39;20.67;;;13.05;;
21741;SDS011;11033;47.490;11.116;2023-04-03T05:45:05;20.48;;;13.15;;
21741;SDS011;11033;47.490;11.116;2023-04-03T05:47:31;19.98;;;12.95;;
21741;SDS011;11033;47.490;11.116;2023-04-03T05:49:56;18.05;;;12.75;;
21741;SDS011;11033;47.490;11.116;2023-04-03T05:52:23;19.63;;;13.07;;
21741;SDS011;11033;47.490;11.116;2023-04-03T05:54:52;19.15;;;13.10;;
21741;SDS011;11033;47.490;11.116;2023-04-03T05:57:18;21.83;;;14.13;;
21741;SDS011;11033;47.490;11.116;2023-04-03T05:59:43;19.02;;;12.80;;
21741;SDS011;11033;47.490;11.116;2023-04-03T06:02:11;22.23;;;14.50;;
21741;SDS011;11033;47.490;11.116;2023-04-03T06:04:38;18.95;;;12.48;;
21741;SDS011;11033;47.490;11.116;2023-04-03T06:07:03;15.32;;;10.93;;
21741;SDS011;11033;47.490;11.116;2023-04-03T06:09:28;16.80;;;12.00;;
21741;SDS011;11033;47.490;11.116;2023-04-03T06:11:54;17.90;;;12.07;;
21741;SDS011;11033;47.490;11.116;2023-04-03T06:14:21;19.70;;;12.75;;
21741;SDS011;11033;47.490;11.116;2023-04-03T06:16:46;18.83;;;13.48;;
21741;SDS011;11033;47.490;11.116;2023-04-03T06:19:12;19.10;;;13.50;;
21741;SDS011;11033;47.490;11.116;2023-04-03T06:21:37;22.02;;;14.40;;
21741;SDS011;11033;47.490;11.116;2023-04-03T06:24:03;21.85;;;14.43;;
21741;SDS011;11033;47.490;11.116;2023-04-03T06:26:29;23.35;;;15.32;;
21741;SDS011;11033;47.490;11.116;2023-04-03T06:28:55;21.33;;;14.32;;
21741;SDS011;11033;47.490;11.116;2023-04-03T06:31:21;23.33;;;16.02;;
21741;SDS011;11033;47.490;11.116;2023-04-03T06:33:46;19.67;;;14.35;;
21741;SDS011;11033;47.490;11.116;2023-04-03T06:36:12;21.60;;;13.57;;
21741;SDS011;11033;47.490;11.116;2023-04-03T06:38:37;21.00;;;14.13;;
21741;SDS011;11033;47.490;11.116;2023-04-03T06:41:03;21.40;;;14.25;;
21741;SDS011;11033;47.490;11.116;2023-04-03T06:43:28;20.98;;;13.20;;
21741;SDS011;11033;47.490;11.116;2023-04-03T06:45:53;20.75;;;13.50;;
21741;SDS011;11033;47.490;11.116;2023-04-03T06:48:19;21.58;;;13.88;;
21741;SDS011;11033;47.490;11.116;2023-04-03T06:50:44;17.58;;;11.75;;
21741;SDS011;11033;47.490;11.116;2023-04-03T06:53:11;16.95;;;11.60;;
21741;SDS011;11033;47.490;11.116;2023-04-03T06:55:37;19.65;;;13.48;;
21741;SDS011;11033;47.490;11.116;2023-04-03T06:58:03;19.23;;;13.15;;
21741;SDS011;11033;47.490;11.116;2023-04-03T07:00:29;22.85;;;15.00;;
21741;SDS011;11033;47.490;11.116;2023-04-03T07:02:55;19.13;;;13.00;;
21741;SDS011;11033;47.490;11.116;2023-04-03T07:05:22;14.25;;;10.10;;
21741;SDS011;11033;47.490;11.116;2023-04-03T07:07:47;15.68;;;11.70;;
21741;SDS011;11033;47.490;11.116;2023-04-03T07:10:14;14.35;;;10.73;;
21741;SDS011;11033;47.490;11.116;2023-04-03T07:12:40;20.30;;;13.40;;
21741;SDS011;11033;47.490;11.116;2023-04-03T07:15:05;19.58;;;14.93;;
21741;SDS011;11033;47.490;11.116;2023-04-03T07:17:31;18.33;;;13.65;;
21741;SDS011;11033;47.490;11.116;2023-04-03T07:19:57;22.25;;;15.05;;
21741;SDS011;11033;47.490;11.116;2023-04-03T07:22:22;21.95;;;14.93;;
21741;SDS011;11033;47.490;11.116;2023-04-03T07:24:48;20.67;;;14.50;;
21741;SDS011;11033;47.490;11.116;2023-04-03T07:27:13;20.37;;;13.93;;
21741;SDS011;11033;47.490;11.116;2023-04-03T07:29:38;24.27;;;15.27;;
21741;SDS011;11033;47.490;11.116;2023-04-03T07:32:04;20.15;;;15.07;;
21741;SDS011;11033;47.490;11.116;2023-04-03T07:34:30;21.98;;;14.57;;
21741;SDS011;11033;47.490;11.116;2023-04-03T07:36:57;26.13;;;17.58;;
21741;SDS011;11033;47.490;11.116;2023-04-03T07:39:23;21.25;;;14.82;;
21741;SDS011;11033;47.490;11.116;2023-04-03T07:41:48;24.70;;;17.05;;
21741;SDS011;11033;47.490;11.116;2023-04-03T07:44:13;23.40;;;15.40;;
21741;SDS011;11033;47.490;11.116;2023-04-03T07:46:39;22.73;;;15.93;;
21741;SDS011;11033;47.490;11.116;2023-04-03T07:49:05;21.65;;;15.05;;
21741;SDS011;11033;47.490;11.116;2023-04-03T07:51:30;20.80;;;14.93;;
21741;SDS011;11033;47.490;11.116;2023-04-03T07:53:56;22.33;;;16.20;;
21741;SDS011;11033;47.490;11.116;2023-04-03T07:56:21;21.97;;;15.63;;
21741;SDS011;11033;47.490;11.116;2023-04-03T07:58:47;20.90;;;15.23;;
21741;SDS011;11033;47.490;11.116;2023-04-03T08:01:13;19.38;;;14.20;;
21741;SDS011;11033;47.490;11.116;2023-04-03T08:03:38;20.55;;;15.10;;
21741;SDS011;11033;47.490;11.116;2023-04-03T08:06:05;25.00;;;16.80;;
21741;SDS011;11033;47.490;11.116;2023-04-03T08:08:32;20.90;;;14.70;;
21741;SDS011;11033;47.490;11.116;2023-04-03T08:10:58;26.40;;;16.13;;
21741;SDS011;11033;47.490;11.116;2023-04-03T08:13:27;24.92;;;17.20;;
21741;SDS011;11033;47.490;11.116;2023-04-03T08:15:54;24.23;;;17.10;;
21741;SDS011;11033;47.490;11.116;2023-04-03T08:18:19;23.73;;;16.30;;
21741;SDS011;11033;47.490;11.116;2023-04-03T08:20:46;25.02;;;17.20;;
21741;SDS011;11033;47.490;11.116;2023-04-03T08:23:12;24.05;;;17.48;;
21741;SDS011;11033;47.490;11.116;2023-04-03T08:25:39;23.90;;;16.40;;
21741;SDS011;11033;47.490;11.116;2023-04-03T08:28:05;20.95;;;15.68;;
21741;SDS011;11033;47.490;11.116;2023-04-03T08:30:31;27.23;;;17.20;;
21741;SDS011;11033;47.490;11.116;2023-04-03T08:32:56;24.25;;;17.70;;
21741;SDS011;11033;47.490;11.116;2023-04-03T08:35:22;22.13;;;15.50;;
21741;SDS011;11033;47.490;11.116;2023-04-03T08:37:47;22.67;;;17.45;;
21741;SDS011;11033;47.490;11.116;2023-04-03T08:40:14;20.48;;;16.13;;
21741;SDS011;11033;47.490;11.116;2023-04-03T08:42:44;22.35;;;16.25;;
21741;SDS011;11033;47.490;11.116;2023-04-03T08:45:27;22.77;;;16.50;;
21741;SDS011;11033;47.490;11.116;2023-04-03T08:48:05;23.00;;;16.90;;
21741;SDS011;11033;47.490;11.116;2023-04-03T08:50:37;25.83;;;17.33;;
21741;SDS011;11033;47.490;11.116;2023-04-03T08:53:06;23.35;;;17.17;;
21741;SDS011;11033;47.490;11.116;2023-04-03T08:55:45;23.27;;;16.05;;
21741;SDS011;11033;47.490;11.116;2023-04-03T09:00:48;23.40;;;17.15;;
21741;SDS011;11033;47.490;11.116;2023-04-03T09:03:17;25.35;;;16.70;;
21741;SDS011;11033;47.490;11.116;2023-04-03T09:05:48;22.67;;;16.23;;
21741;SDS011;11033;47.490;11.116;2023-04-03T09:11:45;23.48;;;16.73;;
21741;SDS011;11033;47.490;11.116;2023-04-03T09:16:59;21.85;;;15.88;;
21741;SDS011;11033;47.490;11.116;2023-04-03T09:22:07;22.02;;;15.15;;
21741;SDS011;11033;47.490;11.116;2023-04-03T09:27:38;21.38;;;14.73;;
21741;SDS011;11033;47.490;11.116;2023-04-03T09:30:04;18.05;;;14.32;;
21741;SDS011;11033;47.490;11.116;2023-04-03T09:32:32;19.27;;;15.18;;
21741;SDS011;11033;47.490;11.116;2023-04-03T09:35:01;19.75;;;15.23;;
21741;SDS011;11033;47.490;11.116;2023-04-03T09:45:27;17.60;;;11.95;;
21741;SDS011;11033;47.490;11.116;2023-04-03T09:51:01;19.75;;;13.73;;
21741;SDS011;11033;47.490;11.116;2023-04-03T09:55:51;16.47;;;12.57;;
21741;SDS011;11033;47.490;11.116;2023-04-03T09:58:30;16.13;;;12.07;;
21741;SDS011;11033;47.490;11.116;2023-04-03T10:01:02;17.13;;;12.18;;
21741;SDS011;11033;47.490;11.116;2023-04-03T10:03:32;18.90;;;14.18;;
21741;SDS011;11033;47.490;11.116;2023-04-03T10:06:00;17.45;;;12.57;;
21741;SDS011;11033;47.490;11.116;2023-04-03T10:08:30;16.38;;;12.35;;
21741;SDS011;11033;47.490;11.116;2023-04-03T10:11:12;17.63;;;12.55;;
21741;SDS011;11033;47.490;11.116;2023-04-03T10:14:16;14.23;;;11.35;;
21741;SDS011;11033;47.490;11.116;2023-04-03T10:16:41;14.82;;;12.00;;
21741;SDS011;11033;47.490;11.116;2023-04-03T10:22:02;15.27;;;11.80;;
21741;SDS011;11033;47.490;11.116;2023-04-03T10:24:47;13.02;;;11.43;;
21741;SDS011;11033;47.490;11.116;2023-04-03T10:27:18;13.77;;;11.60;;
21741;SDS011;11033;47.490;11.116;2023-04-03T10:29:50;14.25;;;10.70;;
21741;SDS011;11033;47.490;11.116;2023-04-03T10:35:11;15.70;;;10.45;;
21741;SDS011;11033;47.490;11.116;2023-04-03T10:38:45;14.05;;;11.30;;
21741;SDS011;11033;47.490;11.116;2023-04-03T10:41:00;13.70;;;11.02;;
21741;SDS011;11033;47.490;11.116;2023-04-03T10:54:48;12.85;;;9.77;;
21741;SDS011;11033;47.490;11.116;2023-04-03T10:57:25;12.65;;;9.98;;
21741;SDS011;11033;47.490;11.116;2023-04-03T11:02:37;11.98;;;9.80;;
21741;SDS011;11033;47.490;11.116;2023-04-03T11:11:15;14.02;;;10.38;;
21741;SDS011;11033;47.490;11.116;2023-04-03T11:13:50;12.45;;;9.93;;
21741;SDS011;11033;47.490;11.116;2023-04-03T11:16:30;15.27;;;9.98;;
21741;SDS011;11033;47.490;11.116;2023-04-03T11:21:40;12.50;;;9.30;;
21741;SDS011;11033;47.490;11.116;2023-04-03T11:24:17;14.38;;;10.32;;
21741;SDS011;11033;47.490;11.116;2023-04-03T11:26:48;12.57;;;10.10;;
21741;SDS011;11033;47.490;11.116;2023-04-03T11:29:18;12.43;;;8.82;;
21741;SDS011;11033;47.490;11.116;2023-04-03T11:40:04;10.82;;;8.27;;
21741;SDS011;11033;47.490;11.116;2023-04-03T11:42:35;11.90;;;8.55;;
21741;SDS011;11033;47.490;11.116;2023-04-03T11:45:15;12.20;;;9.40;;
21741;SDS011;11033;47.490;11.116;2023-04-03T11:47:49;10.63;;;8.70;;
21741;SDS011;11033;47.490;11.116;2023-04-03T11:50:38;11.98;;;9.07;;
21741;SDS011;11033;47.490;11.116;2023-04-03T11:58:15;11.25;;;9.52;;
21741;SDS011;11033;47.490;11.116;2023-04-03T12:00:51;12.05;;;9.18;;
21741;SDS011;11033;47.490;11.116;2023-04-03T12:13:33;10.23;;;8.20;;
21741;SDS011;11033;47.490;11.116;2023-04-03T12:16:04;9.80;;;8.57;;
21741;SDS011;11033;47.490;11.116;2023-04-03T12:21:15;9.77;;;8.77;;
21741;SDS011;11033;47.490;11.116;2023-04-03T12:48:55;12.98;;;10.00;;
21741;SDS011;11033;47.490;11.116;2023-04-03T12:51:38;10.00;;;8.90;;
21741;SDS011;11033;47.490;11.116;2023-04-03T12:54:13;11.07;;;8.38;;
21741;SDS011;11033;47.490;11.116;2023-04-03T12:56:42;8.65;;;7.38;;
21741;SDS011;11033;47.490;11.116;2023-04-03T12:59:19;9.95;;;8.00;;
21741;SDS011;11033;47.490;11.116;2023-04-03T13:01:53;9.13;;;8.13;;
21741;SDS011;11033;47.490;11.116;2023-04-03T13:04:28;9.10;;;7.88;;
21741;SDS011;11033;47.490;11.116;2023-04-03T13:06:55;10.68;;;8.13;;
21741;SDS011;11033;47.490;11.116;2023-04-03T13:09:25;10.35;;;7.95;;
21741;SDS011;11033;47.490;11.116;2023-04-03T13:12:11;10.23;;;8.35;;
21741;SDS011;11033;47.490;11.116;2023-04-03T13:14:39;9.30;;;7.80;;
21741;SDS011;11033;47.490;11.116;2023-04-03T13:19:39;9.45;;;7.40;;
21741;SDS011;11033;47.490;11.116;2023-04-03T13:22:28;8.70;;;7.80;;
21741;SDS011;11033;47.490;11.116;2023-04-03T13:24:59;8.70;;;7.80;;
21741;SDS011;11033;47.490;11.116;2023-04-03T13:27:31;8.45;;;7.57;;
21741;SDS011;11033;47.490;11.116;2023-04-03T13:29:57;11.98;;;8.93;;
21741;SDS011;11033;47.490;11.116;2023-04-03T13:32:26;8.70;;;7.80;;
21741;SDS011;11033;47.490;11.116;2023-04-03T13:34:53;10.63;;;8.40;;
21741;SDS011;11033;47.490;11.116;2023-04-03T13:37:22;9.45;;;8.05;;
21741;SDS011;11033;47.490;11.116;2023-04-03T13:40:00;11.07;;;8.55;;
21741;SDS011;11033;47.490;11.116;2023-04-03T13:42:36;11.88;;;7.90;;
21741;SDS011;11033;47.490;11.116;2023-04-03T13:47:53;9.57;;;7.85;;
21741;SDS011;11033;47.490;11.116;2023-04-03T13:50:33;10.70;;;9.13;;
21741;SDS011;11033;47.490;11.116;2023-04-03T13:53:16;8.35;;;7.45;;
21741;SDS011;11033;47.490;11.116;2023-04-03T13:58:51;8.15;;;6.97;;
21741;SDS011;11033;47.490;11.116;2023-04-03T14:01:22;10.00;;;7.93;;
21741;SDS011;11033;47.490;11.116;2023-04-03T14:03:53;10.65;;;8.88;;
21741;SDS011;11033;47.490;11.116;2023-04-03T14:06:22;9.60;;;7.88;;
21741;SDS011;11033;47.490;11.116;2023-04-03T14:08:48;10.23;;;8.27;;
21741;SDS011;11033;47.490;11.116;2023-04-03T14:11:15;10.75;;;8.55;;
21741;SDS011;11033;47.490;11.116;2023-04-03T14:13:43;10.02;;;8.20;;
21741;SDS011;11033;47.490;11.116;2023-04-03T14:16:22;12.07;;;8.60;;
21741;SDS011;11033;47.490;11.116;2023-04-03T14:18:52;8.95;;;7.15;;
21741;SDS011;11033;47.490;11.116;2023-04-03T14:21:18;10.57;;;8.00;;
21741;SDS011;11033;47.490;11.116;2023-04-03T14:23:45;10.07;;;8.98;;
21741;SDS011;11033;47.490;11.116;2023-04-03T14:26:12;12.55;;;9.40;;
21741;SDS011;11033;47.490;11.116;2023-04-03T14:28:43;15.07;;;12.73;;
21741;SDS011;11033;47.490;11.116;2023-04-03T14:31:10;9.85;;;7.85;;
21741;SDS011;11033;47.490;11.116;2023-04-03T14:33:37;16.02;;;10.93;;
21741;SDS011;11033;47.490;11.116;2023-04-03T14:36:36;16.98;;;11.27;;
21741;SDS011;11033;47.490;11.116;2023-04-03T14:38:56;16.55;;;12.70;;
21741;SDS011;11033;47.490;11.116;2023-04-03T14:41:23;17.00;;;12.60;;
21741;SDS011;11033;47.490;11.116;2023-04-03T14:43:50;12.60;;;10.20;;
21741;SDS011;11033;47.490;11.116;2023-04-03T14:48:43;12.48;;;8.93;;
21741;SDS011;11033;47.490;11.116;2023-04-03T14:51:10;10.50;;;8.50;;
21741;SDS011;11033;47.490;11.116;2023-04-03T14:53:36;17.38;;;11.45;;
21741;SDS011;11033;47.490;11.116;2023-04-03T14:56:04;12.45;;;9.68;;
21741;SDS011;11033;47.490;11.116;2023-04-03T14:58:35;11.27;;;8.35;;
21741;SDS011;11033;47.490;11.116;2023-04-03T15:01:02;10.27;;;8.73;;
21741;SDS011;11033;47.490;11.116;2023-04-03T15:03:27;12.10;;;9.32;;
21741;SDS011;11033;47.490;11.116;2023-04-03T15:05:52;12.02;;;9.23;;
21741;SDS011;11033;47.490;11.116;2023-04-03T15:08:25;11.55;;;9.07;;
21741;SDS011;11033;47.490;11.116;2023-04-03T15:10:54;15.98;;;11.80;;
21741;SDS011;11033;47.490;11.116;2023-04-03T15:13:20;23.15;;;13.85;;
21741;SDS011;11033;47.490;11.116;2023-04-03T15:15:46;19.15;;;13.98;;
21741;SDS011;11033;47.490;11.116;2023-04-03T15:18:15;19.80;;;15.00;;
21741;SDS011;11033;47.490;11.116;2023-04-03T15:20:43;10.48;;;9.23;;
21741;SDS011;11033;47.490;11.116;2023-04-03T15:23:12;11.13;;;9.00;;
21741;SDS011;11033;47.490;11.116;2023-04-03T15:25:40;9.98;;;8.82;;
21741;SDS011;11033;47.490;11.116;2023-04-03T15:28:19;12.15;;;9.32;;
21741;SDS011;11033;47.490;11.116;2023-04-03T15:30:50;10.07;;;8.52;;
21741;SDS011;11033;47.490;11.116;2023-04-03T15:33:16;11.40;;;8.55;;
21741;SDS011;11033;47.490;11.116;2023-04-03T15:35:41;14.85;;;10.70;;
21741;SDS011;11033;47.490;11.116;2023-04-03T15:38:08;15.40;;;10.75;;
21741;SDS011;11033;47.490;11.116;2023-04-03T15:40:33;13.57;;;9.35;;
21741;SDS011;11033;47.490;11.116;2023-04-03T15:42:59;12.18;;;9.80;;
21741;SDS011;11033;47.490;11.116;2023-04-03T15:45:24;17.35;;;11.45;;
21741;SDS011;11033;47.490;11.116;2023-04-03T15:47:50;14.45;;;11.02;;
21741;SDS011;11033;47.490;11.116;2023-04-03T15:50:16;19.42;;;12.98;;
21741;SDS011;11033;47.490;11.116;2023-04-03T15:52:41;15.25;;;11.88;;
21741;SDS011;11033;47.490;11.116;2023-04-03T15:55:07;12.77;;;10.82;;
21741;SDS011;11033;47.490;11.116;2023-04-03T15:57:32;14.48;;;10.77;;
21741;SDS011;11033;47.490;11.116;2023-04-03T15:59:57;12.88;;;11.35;;
21741;SDS011;11033;47.490;11.116;2023-04-03T16:02:23;13.82;;;10.88;;
21741;SDS011;11033;47.490;11.116;2023-04-03T16:04:48;13.60;;;9.95;;
21741;SDS011;11033;47.490;11.116;2023-04-03T16:07:14;13.68;;;11.18;;
21741;SDS011;11033;47.490;11.116;2023-04-03T16:09:40;12.30;;;10.32;;
21741;SDS011;11033;47.490;11.116;2023-04-03T16:12:05;12.93;;;10.45;;
21741;SDS011;11033;47.490;11.116;2023-04-03T16:14:30;17.67;;;13.30;;
21741;SDS011;11033;47.490;11.116;2023-04-03T16:16:57;14.02;;;11.07;;
21741;SDS011;11033;47.490;11.116;2023-04-03T16:19:23;16.20;;;12.65;;
21741;SDS011;11033;47.490;11.116;2023-04-03T16:21:49;15.73;;;13.15;;
21741;SDS011;11033;47.490;11.116;2023-04-03T16:24:15;19.17;;;13.98;;
21741;SDS011;11033;47.490;11.116;2023-04-03T16:26:40;16.35;;;12.55;;
21741;SDS011;11033;47.490;11.116;2023-04-03T16:29:05;23.50;;;16.58;;